ADDS TAF Board INFO
 
 

IDs: Format: Expanded Condensed

KFLL - Ft Lauderdale-Hollyw, FL, US

Issued at 2329 UTC 25 Jul 2014
Time0053Z26/02Z26/03Z26/04Z26/05Z26/06Z26/07Z26/08Z26/09Z26/10Z26/11Z26/12Z26/13Z26/14Z
TypeOBSPRVLPRVLPRVLPRVLPRVLPRVLPRVLPRVLPRVLPRVLPRVLPRVLPRVL
Vis10>6>6>6>6>6>6>6>6>6>6>6>6>6
Cig--250250----------------------
CoverFEWBKNBKNSCTSCTSCTSCTSCTSCTSCTSCTSCTSCTSCT
FltCat--VFRVFRVFRVFRVFRVFRVFRVFRVFRVFRVFRVFRVFR
Wx----------------------------
WDir140140140VRBVRBVRBVRBVRBVRBVRBVRBVRBVRBVRB
WSpd37744444444444
WGst----------------------------
R10/28
XWnd-2-5-5VRBVRBVRBVRBVRBVRBVRBVRBVRBVRBVRB
HWnd244VRBVRBVRBVRBVRBVRBVRBVRBVRBVRBVRB
Raw TAF
KFLL 252329Z 2600/2624 14007KT P6SM SCT035 BKN250
  FM260400 VRB04KT P6SM SCT250
  FM261600 12010KT P6SM VCTS SCT035CB BKN250


Raw METAR
KFLL 260053Z 14003KT 10SM FEW023 FEW060 30/24 A3006 RMK AO2 SLP179 T03000244

TAF Board Legend

Hazard Green Yellow Red Magenta
Visibility (sm) >5 >2.99 >0.99 <=0.99
Ceiling (100 ft) >30 >9.99 >4.99 <=4.99
Wind Speed (kt) <10 <20 <30 >=30
Wind Gust (kt) <10 <20 <30 >=30
Weather No Wx Reported Light precipitation Moderate precipitation Heavy precipitation
Flight Category VFR MVFR IFR LIFR

Page loaded:  01:03 UTC  |   06:03 PM Pacific  |   07:03 PM Mountain  |   08:03 PM Central  |   09:03 PM Eastern

 

ADVISORIES

FORECASTS

FORECASTS

OBSERVATIONS

USER TOOLS

ABOUT US